createdAt,value
2022-12-08T00:04:18.893Z,12.10
2022-12-08T00:09:22.212Z,10.90
2022-12-08T00:14:28.528Z,11.40
2022-12-08T00:19:32.311Z,12.90
2022-12-08T00:24:39.763Z,10.00
2022-12-08T00:29:45.798Z,10.70
2022-12-08T00:34:49.217Z,10.90
2022-12-08T00:39:52.225Z,12.50
2022-12-08T00:44:55.231Z,9.00
2022-12-08T00:49:58.233Z,9.50
2022-12-08T00:55:01.240Z,4.90
2022-12-08T01:00:05.270Z,12.30
2022-12-08T01:05:08.792Z,7.20
2022-12-08T01:10:11.696Z,10.20
2022-12-08T01:15:14.503Z,10.60
2022-12-08T01:20:17.605Z,8.80
2022-12-08T01:25:20.509Z,10.80
2022-12-08T01:30:23.630Z,10.70
2022-12-08T01:35:26.730Z,9.60
2022-12-08T01:40:29.731Z,10.20
2022-12-08T01:45:33.249Z,10.60
2022-12-08T01:50:37.566Z,8.40
2022-12-08T01:55:55.335Z,9.20
2022-12-08T02:00:58.489Z,10.10
2022-12-08T02:06:03.124Z,11.50
2022-12-08T02:11:09.638Z,10.60
2022-12-08T02:16:38.765Z,9.80
2022-12-08T02:21:51.945Z,11.30
2022-12-08T02:27:13.802Z,8.40
2022-12-08T02:32:37.075Z,9.30
2022-12-08T02:38:02.000Z,10.20
2022-12-08T02:43:16.779Z,11.70
2022-12-08T02:48:19.886Z,11.10
2022-12-08T02:53:22.902Z,8.90
2022-12-08T02:58:50.579Z,9.00
2022-12-08T03:04:14.781Z,6.60
2022-12-08T03:09:24.791Z,6.30
2022-12-08T03:14:30.015Z,7.70
2022-12-08T03:19:38.955Z,10.90
2022-12-08T03:24:45.444Z,10.80
2022-12-08T03:29:51.012Z,9.40
2022-12-08T03:34:56.065Z,8.30
2022-12-08T03:39:58.969Z,7.90
2022-12-08T03:45:01.976Z,8.90
2022-12-08T03:50:06.381Z,9.60
2022-12-08T03:55:10.241Z,6.70
2022-12-08T04:00:16.113Z,11.10
2022-12-08T04:05:19.020Z,7.00
2022-12-08T04:10:22.126Z,8.70
2022-12-08T04:15:25.134Z,12.30
2022-12-08T04:20:28.036Z,8.60
2022-12-08T04:25:30.941Z,11.50
2022-12-08T04:30:34.619Z,12.20
2022-12-08T04:35:37.567Z,11.30
2022-12-08T04:40:40.882Z,11.60
2022-12-08T04:45:43.888Z,13.80
2022-12-08T04:50:46.994Z,10.20
2022-12-08T04:55:50.517Z,10.10
2022-12-08T05:00:53.613Z,14.50
2022-12-08T05:05:56.628Z,8.70
2022-12-08T05:11:07.917Z,11.00
2022-12-08T05:16:13.773Z,10.00
2022-12-08T05:21:16.914Z,12.30
2022-12-08T05:26:20.328Z,10.80
2022-12-08T05:31:23.501Z,10.00
2022-12-08T05:36:26.647Z,9.50
2022-12-08T05:41:29.760Z,8.00
2022-12-08T05:46:32.970Z,10.20
2022-12-08T05:51:35.976Z,11.10
2022-12-08T05:56:38.982Z,8.80
2022-12-08T06:01:42.789Z,9.20
2022-12-08T06:06:46.019Z,11.60
2022-12-08T06:11:49.330Z,7.40
2022-12-08T06:16:52.661Z,9.00
2022-12-08T06:21:55.693Z,8.50
2022-12-08T06:26:58.661Z,9.40
2022-12-08T06:32:01.836Z,8.00
2022-12-08T06:37:04.874Z,7.40
2022-12-08T06:42:26.487Z,9.70
2022-12-08T06:47:29.523Z,6.90
2022-12-08T06:52:32.733Z,6.10
2022-12-08T06:57:35.844Z,5.40
2022-12-08T07:02:39.048Z,7.40
2022-12-08T07:07:42.408Z,9.20
2022-12-08T07:12:45.890Z,10.40
2022-12-08T07:17:49.755Z,7.70
2022-12-08T07:22:54.867Z,8.70
2022-12-08T07:27:57.881Z,7.40
2022-12-08T07:33:03.544Z,7.10
2022-12-08T07:38:10.917Z,11.20
2022-12-08T07:43:13.863Z,11.90
2022-12-08T07:48:17.454Z,7.10
2022-12-08T07:53:20.421Z,6.30
2022-12-08T07:58:23.598Z,7.50
2022-12-08T08:03:26.803Z,6.00
2022-12-08T08:08:30.277Z,11.70
2022-12-08T08:13:33.438Z,10.50
2022-12-08T08:18:37.903Z,14.20
2022-12-08T08:23:41.086Z,17.30
2022-12-08T08:28:45.937Z,10.90
2022-12-08T08:33:49.864Z,8.30
2022-12-08T08:38:52.972Z,10.60
2022-12-08T08:43:55.979Z,10.40
2022-12-08T08:48:59.275Z,14.60
2022-12-08T08:54:02.300Z,19.10
2022-12-08T08:59:05.511Z,14.50
2022-12-08T09:04:10.421Z,10.60
2022-12-08T09:09:13.573Z,9.60
2022-12-08T09:14:16.682Z,10.60
2022-12-08T09:19:20.101Z,11.10
2022-12-08T09:24:23.403Z,18.50
2022-12-08T09:29:31.093Z,14.00
2022-12-08T09:34:37.507Z,14.90
2022-12-08T09:39:40.617Z,16.40
2022-12-08T09:44:52.428Z,16.60
2022-12-08T09:49:59.312Z,19.00
2022-12-08T09:55:10.121Z,14.20
2022-12-08T10:00:14.610Z,23.40
2022-12-08T10:05:17.617Z,19.70
2022-12-08T10:10:32.242Z,30.50
2022-12-08T10:15:48.329Z,14.70
2022-12-08T10:20:52.895Z,7.60
2022-12-08T10:26:01.943Z,8.50
2022-12-08T10:31:05.307Z,11.30
2022-12-08T10:36:11.442Z,10.50
2022-12-08T10:41:18.191Z,10.90
2022-12-08T10:46:26.073Z,10.70
2022-12-08T10:51:33.319Z,14.40
2022-12-08T10:56:36.297Z,23.40
2022-12-08T11:01:41.531Z,14.80
2022-12-08T11:06:45.647Z,15.70
2022-12-08T11:11:54.807Z,14.10
2022-12-08T11:17:17.069Z,16.10
2022-12-08T11:22:25.709Z,14.00
2022-12-08T11:27:29.021Z,19.90
2022-12-08T11:32:32.130Z,17.30
2022-12-08T11:37:41.280Z,25.40
2022-12-08T11:43:09.779Z,25.70
2022-12-08T11:48:19.575Z,15.00
2022-12-08T11:53:53.788Z,15.80
2022-12-08T11:59:02.328Z,17.10
2022-12-08T12:04:29.907Z,19.20
2022-12-08T12:10:00.765Z,16.10
2022-12-08T12:15:31.231Z,12.50
2022-12-08T12:20:42.617Z,14.20
2022-12-08T12:25:58.232Z,14.10
2022-12-08T12:31:06.624Z,19.00
2022-12-08T12:36:11.241Z,15.00
2022-12-08T12:41:19.737Z,17.50
2022-12-08T12:46:25.670Z,13.30
2022-12-08T12:51:42.364Z,14.60
2022-12-08T12:56:49.948Z,11.70
2022-12-08T13:01:55.927Z,13.20
2022-12-08T13:06:59.852Z,18.50
2022-12-08T13:12:12.587Z,19.60
2022-12-08T13:17:31.232Z,20.60
2022-12-08T13:22:54.036Z,18.80
2022-12-08T13:27:57.238Z,21.60
2022-12-08T13:33:18.431Z,20.50
2022-12-08T13:38:28.240Z,17.00
2022-12-08T13:43:51.325Z,16.60
2022-12-08T14:00:02.593Z,21.30
2022-12-08T14:05:18.161Z,16.20
2022-12-08T14:10:30.720Z,21.10
2022-12-08T14:15:38.417Z,20.30
2022-12-08T14:21:18.883Z,23.00
2022-12-08T14:26:06.117Z,23.60
2022-12-08T14:31:14.116Z,24.50
2022-12-08T14:36:20.231Z,26.30
2022-12-08T14:41:32.161Z,23.90
2022-12-08T14:46:35.221Z,28.50
2022-12-08T14:51:40.244Z,32.20
2022-12-08T14:56:54.894Z,29.00
2022-12-08T15:02:16.052Z,29.10
2022-12-08T15:07:23.786Z,28.60
2022-12-08T15:12:31.921Z,26.60
2022-12-08T15:17:36.443Z,41.10
2022-12-08T15:22:39.553Z,28.10
2022-12-08T15:27:50.203Z,30.00
2022-12-08T15:32:54.472Z,30.70
2022-12-08T15:37:57.544Z,35.20
2022-12-08T15:43:00.589Z,33.00
2022-12-08T15:48:04.102Z,80.90
2022-12-08T15:53:10.507Z,40.60
2022-12-08T16:09:37.106Z,108.30
2022-12-08T16:20:07.373Z,254.40
2022-12-08T16:25:21.768Z,210.40
2022-12-08T16:30:25.693Z,157.20
2022-12-08T16:35:29.128Z,154.10
2022-12-08T16:40:32.548Z,177.80
2022-12-08T16:45:41.513Z,118.30
2022-12-08T16:50:47.976Z,59.40
2022-12-08T16:55:51.394Z,42.60
2022-12-08T17:00:54.688Z,46.40
2022-12-08T17:05:58.330Z,118.00
2022-12-08T17:11:11.981Z,84.40
2022-12-08T17:16:19.377Z,41.20
2022-12-08T17:21:22.501Z,36.10
2022-12-08T17:26:25.547Z,69.50
2022-12-08T17:31:30.803Z,128.40
2022-12-08T17:36:34.387Z,69.30
2022-12-08T17:41:37.800Z,38.30
2022-12-08T17:46:46.383Z,37.10
2022-12-08T17:51:56.305Z,36.70
2022-12-08T17:56:59.618Z,35.50
2022-12-08T18:02:04.500Z,36.40
2022-12-08T18:07:07.600Z,33.50
2022-12-08T18:12:10.702Z,34.30
2022-12-08T18:17:14.857Z,38.50
2022-12-08T18:22:17.826Z,46.00
2022-12-08T18:27:20.832Z,38.20
2022-12-08T18:32:23.944Z,37.00
2022-12-08T18:37:27.149Z,33.40
2022-12-08T18:42:30.266Z,38.30
2022-12-08T18:47:40.440Z,33.80
2022-12-08T18:52:45.406Z,31.40
2022-12-08T18:57:49.013Z,34.70
2022-12-08T19:02:52.165Z,33.00
2022-12-08T19:07:55.414Z,30.10
2022-12-08T19:12:58.549Z,29.90
2022-12-08T19:18:02.057Z,31.80
2022-12-08T19:23:05.178Z,28.30
2022-12-08T19:28:08.299Z,32.50
2022-12-08T19:33:11.697Z,35.10
2022-12-08T19:38:15.540Z,32.30
2022-12-08T19:43:40.107Z,32.20
2022-12-08T19:48:43.768Z,29.20
2022-12-08T19:53:47.982Z,25.50
2022-12-08T19:58:51.207Z,40.40
2022-12-08T20:03:54.312Z,40.20
2022-12-08T20:08:57.523Z,30.70
2022-12-08T20:14:00.527Z,28.30
2022-12-08T20:19:04.430Z,31.50
2022-12-08T20:24:07.882Z,29.70
2022-12-08T20:29:11.905Z,26.80
2022-12-08T20:34:16.423Z,29.70
2022-12-08T20:39:19.566Z,34.30
2022-12-08T20:44:22.683Z,28.30
2022-12-08T20:49:29.834Z,30.00
2022-12-08T20:54:38.173Z,32.70
2022-12-08T20:59:41.225Z,32.80
2022-12-08T21:04:44.737Z,32.00
2022-12-08T21:09:48.042Z,31.10
2022-12-08T21:14:51.502Z,35.50
2022-12-08T21:19:54.863Z,33.60
2022-12-08T21:24:57.952Z,35.40
2022-12-08T21:30:01.121Z,47.30
2022-12-08T21:35:05.365Z,33.70
2022-12-08T21:40:09.422Z,35.60
2022-12-08T21:45:15.586Z,37.20
2022-12-08T21:50:19.014Z,34.30
2022-12-08T21:55:23.930Z,38.10
2022-12-08T22:00:27.051Z,30.20
2022-12-08T22:05:30.248Z,36.40
2022-12-08T22:10:33.629Z,37.70
2022-12-08T22:15:36.740Z,35.70
2022-12-08T22:20:43.917Z,32.30
2022-12-08T22:26:01.736Z,38.10
2022-12-08T22:31:12.917Z,36.60
2022-12-08T22:36:19.815Z,38.60
2022-12-08T22:41:23.849Z,35.90
2022-12-08T22:46:27.984Z,47.40
2022-12-08T22:51:31.024Z,34.10
2022-12-08T22:56:34.096Z,37.10
2022-12-08T23:01:37.078Z,37.80
2022-12-08T23:06:40.101Z,45.20
2022-12-08T23:11:44.207Z,39.40
2022-12-08T23:16:47.691Z,41.70
2022-12-08T23:21:50.887Z,38.50
2022-12-08T23:26:54.048Z,40.40
2022-12-08T23:31:57.394Z,46.00
2022-12-08T23:37:00.586Z,42.00
2022-12-08T23:42:04.112Z,38.80
2022-12-08T23:47:07.370Z,39.70
2022-12-08T23:52:13.765Z,40.00
2022-12-08T23:57:17.425Z,38.50
